Time;durP1;ratioP1;P1;durP2;ratioP2;P2;SDS_P1;SDS_P2;PMS_P1;PMS_P2;Temp;Humidity;BMP_temperature;BMP_pressure;BME280_temperature;BME280_humidity;BME280_pressure;Samples;Min_cycle;Max_cycle;Signal;HPM_P1;HPM_P2
2021/01/27 00:02:24;;;;;;;19.07;11.23;;;3.00;61.80;;;;;;5039864;28;20401;-74
2021/01/27 00:04:50;;;;;;;15.50;10.73;;;3.00;62.90;;;;;;5049755;28;20413;-71
2021/01/27 00:07:15;;;;;;;18.60;11.27;;;3.00;64.30;;;;;;5049470;28;20374;-74
2021/01/27 00:09:41;;;;;;;21.47;12.23;;;3.00;65.50;;;;;;5050428;28;20400;-74
2021/01/27 00:12:06;;;;;;;19.17;11.00;;;3.00;65.40;;;;;;5034229;28;20607;-73
2021/01/27 00:14:32;;;;;;;18.88;12.10;;;3.00;65.80;;;;;;5030749;28;20441;-74
2021/01/27 00:16:57;;;;;;;17.13;10.80;;;3.10;66.10;;;;;;5030621;28;20379;-73
2021/01/27 00:19:23;;;;;;;17.30;12.47;;;3.10;65.50;;;;;;5030269;28;20487;-73
2021/01/27 00:21:48;;;;;;;17.97;11.80;;;3.00;66.00;;;;;;5032833;28;20398;-73
2021/01/27 00:24:14;;;;;;;22.10;12.83;;;2.90;67.10;;;;;;5030711;28;20725;-70
2021/01/27 00:26:39;;;;;;;21.57;12.50;;;2.90;68.50;;;;;;5031079;28;20455;-72
2021/01/27 00:29:05;;;;;;;18.23;12.90;;;2.90;68.50;;;;;;5054348;28;20883;-71
2021/01/27 00:31:31;;;;;;;24.80;12.80;;;2.90;68.40;;;;;;5052360;28;20667;-73
2021/01/27 00:33:56;;;;;;;18.27;12.90;;;2.90;67.70;;;;;;5029205;28;20387;-72
2021/01/27 00:36:22;;;;;;;21.88;12.70;;;2.90;69.10;;;;;;5040629;28;20897;-73
2021/01/27 00:38:47;;;;;;;23.52;12.60;;;2.80;68.80;;;;;;5050830;28;20879;-73
2021/01/27 00:41:13;;;;;;;18.20;12.10;;;2.80;69.20;;;;;;5047446;28;20402;-73
2021/01/27 00:43:38;;;;;;;24.07;13.80;;;2.80;68.40;;;;;;5066595;28;20480;-72
2021/01/27 00:46:04;;;;;;;20.63;13.03;;;2.70;68.60;;;;;;5051703;28;20456;-75
2021/01/27 00:48:30;;;;;;;20.80;12.20;;;2.70;69.70;;;;;;5051249;28;20385;-73
2021/01/27 00:50:55;;;;;;;18.50;12.02;;;2.60;70.50;;;;;;5033653;28;20399;-73
2021/01/27 00:53:21;;;;;;;20.47;12.67;;;2.70;70.80;;;;;;5030971;28;20457;-72
2021/01/27 00:55:46;;;;;;;20.30;12.80;;;2.60;70.20;;;;;;5031497;28;20386;-75
2021/01/27 00:58:12;;;;;;;18.53;11.67;;;2.70;69.30;;;;;;5032570;28;20932;-73
2021/01/27 01:00:40;;;;;;;21.00;11.90;;;2.60;68.90;;;;;;5034475;28;20884;-73
2021/01/27 01:03:07;;;;;;;17.20;11.60;;;2.70;68.30;;;;;;5030938;28;20904;-73
2021/01/27 01:05:38;;;;;;;18.13;11.10;;;2.70;67.60;;;;;;5032375;28;20387;-74
2021/01/27 01:08:06;;;;;;;20.30;11.73;;;2.70;67.00;;;;;;5032540;28;20398;-72
2021/01/27 01:10:34;;;;;;;17.77;11.45;;;2.70;67.40;;;;;;5029942;28;20749;-73
2021/01/27 01:13:01;;;;;;;19.20;11.00;;;2.70;67.20;;;;;;5030125;28;20425;-75
2021/01/27 01:15:28;;;;;;;18.05;11.43;;;2.70;66.10;;;;;;5030031;28;20398;-73
2021/01/27 01:17:54;;;;;;;15.35;11.45;;;2.70;66.00;;;;;;5029807;28;20395;-76
2021/01/27 01:20:20;;;;;;;16.13;10.83;;;2.70;66.20;;;;;;5037892;28;20420;-74
2021/01/27 01:22:48;;;;;;;18.52;11.07;;;2.80;65.00;;;;;;5049828;28;20400;-72
2021/01/27 01:25:15;;;;;;;16.95;10.90;;;2.80;64.50;;;;;;5049777;28;20446;-74
2021/01/27 01:27:42;;;;;;;16.95;11.07;;;2.80;65.30;;;;;;5049945;28;20392;-72
2021/01/27 01:30:19;;;;;;;17.45;10.75;;;2.80;63.70;;;;;;5045135;28;20869;-73
2021/01/27 01:32:44;;;;;;;17.33;10.57;;;2.80;62.40;;;;;;5034163;28;20919;-71
2021/01/27 01:35:12;;;;;;;16.47;10.40;;;2.80;62.80;;;;;;5029863;28;20391;-70
2021/01/27 01:37:38;;;;;;;14.63;8.85;;;2.90;60.10;;;;;;5049771;28;20393;-71
2021/01/27 01:40:08;;;;;;;16.38;9.38;;;3.00;58.70;;;;;;5045780;28;20409;-74
2021/01/27 01:42:34;;;;;;;13.38;8.50;;;2.90;58.20;;;;;;5050020;28;20787;-73
2021/01/27 01:44:59;;;;;;;12.55;8.48;;;3.00;55.50;;;;;;5053273;28;20523;-75
2021/01/27 01:47:25;;;;;;;13.87;8.97;;;3.00;55.10;;;;;;5044317;28;20433;-72
2021/01/27 01:49:54;;;;;;;13.40;8.60;;;3.00;54.20;;;;;;5032920;28;20749;-73
2021/01/27 01:52:20;;;;;;;11.15;7.68;;;3.10;52.60;;;;;;5033022;28;20765;-74
2021/01/27 01:54:56;;;;;;;12.98;8.55;;;3.20;50.00;;;;;;5033178;28;20394;-75
2021/01/27 01:57:26;;;;;;;11.48;6.97;;;3.30;47.60;;;;;;5032749;28;20503;-74
2021/01/27 01:59:57;;;;;;;10.90;7.68;;;3.30;46.60;;;;;;5032810;28;20403;-75
2021/01/27 02:02:23;;;;;;;12.00;7.30;;;3.40;45.00;;;;;;5033043;28;20753;-74
2021/01/27 02:04:59;;;;;;;12.05;7.25;;;3.50;44.50;;;;;;5032756;28;20380;-72
2021/01/27 02:07:26;;;;;;;12.60;6.63;;;3.60;43.70;;;;;;5032817;28;20395;-74
2021/01/27 02:09:52;;;;;;;9.35;7.00;;;3.50;44.00;;;;;;5033613;28;20443;-73
2021/01/27 02:12:51;;;;;;;8.45;5.35;;;3.50;43.50;;;;;;5032879;28;20823;-75
2021/01/27 02:15:45;;;;;;;6.53;4.57;;;3.60;40.20;;;;;;5032516;28;20441;-75
2021/01/27 02:18:51;;;;;;;7.20;4.20;;;3.70;38.10;;;;;;5032539;28;20399;-75
2021/01/27 02:21:50;;;;;;;6.13;3.60;;;3.80;37.20;;;;;;5032474;28;20752;-73
2021/01/27 02:24:19;;;;;;;5.20;4.10;;;3.90;37.90;;;;;;5032692;28;20379;-73
2021/01/27 02:27:00;;;;;;;5.00;3.70;;;3.80;37.90;;;;;;5034771;28;20384;-73
2021/01/27 02:29:37;;;;;;;7.07;3.35;;;3.90;38.20;;;;;;5061782;28;20407;-74
2021/01/27 02:32:34;;;;;;;5.60;3.10;;;3.90;38.20;;;;;;5072344;28;20402;-73
2021/01/27 02:35:06;;;;;;;3.10;2.83;;;3.90;38.20;;;;;;5069716;28;20379;-74
2021/01/27 02:38:17;;;;;;;4.53;2.70;;;3.90;39.10;;;;;;5032670;28;20880;-73
2021/01/27 02:40:54;;;;;;;2.70;2.50;;;3.90;39.20;;;;;;5031792;28;20426;-73
2021/01/27 02:43:26;;;;;;;3.47;2.60;;;3.90;39.70;;;;;;5032296;28;20445;-74
2021/01/27 02:46:01;;;;;;;7.18;3.03;;;3.90;40.50;;;;;;5032982;28;20796;-77
2021/01/27 02:48:41;;;;;;;4.57;2.80;;;3.90;40.80;;;;;;5032200;28;20780;-72
2021/01/27 02:51:31;;;;;;;3.33;2.70;;;3.90;41.30;;;;;;5032026;28;20379;-76
2021/01/27 02:54:07;;;;;;;4.68;2.72;;;3.80;40.50;;;;;;5031855;28;20386;-73
2021/01/27 02:56:36;;;;;;;3.13;2.50;;;3.70;40.90;;;;;;5031895;28;20449;-74
2021/01/27 02:59:10;;;;;;;4.78;2.80;;;3.80;40.10;;;;;;5031549;28;20757;-73
2021/01/27 03:02:04;;;;;;;2.97;2.67;;;3.90;40.80;;;;;;5031831;28;20380;-74
2021/01/27 03:04:39;;;;;;;4.40;2.77;;;4.00;40.10;;;;;;5031849;28;20413;-73
2021/01/27 03:07:06;;;;;;;5.50;2.42;;;3.90;39.40;;;;;;5065163;28;20395;-72
2021/01/27 03:09:37;;;;;;;3.20;2.50;;;3.90;39.30;;;;;;5031472;28;20805;-73
2021/01/27 03:12:04;;;;;;;5.25;2.10;;;3.90;39.40;;;;;;5031528;28;20406;-74
2021/01/27 03:14:29;;;;;;;3.60;2.40;;;4.00;39.00;;;;;;5031692;28;20387;-73
2021/01/27 03:17:01;;;;;;;3.20;2.30;;;4.00;38.60;;;;;;5031698;28;20490;-72
2021/01/27 03:19:42;;;;;;;4.10;2.85;;;4.00;39.00;;;;;;5033870;28;20776;-72
2021/01/27 03:22:14;;;;;;;4.90;2.90;;;3.90;39.70;;;;;;5031634;28;21416;-73
2021/01/27 03:24:51;;;;;;;6.90;2.60;;;3.90;40.30;;;;;;5032198;28;20379;-72
2021/01/27 03:27:21;;;;;;;3.70;2.30;;;3.90;40.60;;;;;;5034869;28;20753;-73
2021/01/27 03:29:55;;;;;;;3.00;2.70;;;4.00;39.80;;;;;;5067335;28;20791;-74
2021/01/27 03:32:29;;;;;;;5.63;2.10;;;4.00;40.60;;;;;;5071323;28;20751;-74
2021/01/27 03:35:30;;;;;;;4.20;2.38;;;4.10;40.90;;;;;;5071035;28;20387;-73
2021/01/27 03:38:07;;;;;;;2.80;2.60;;;4.10;41.80;;;;;;5030549;28;20399;-74
2021/01/27 03:40:35;;;;;;;3.70;2.40;;;4.10;42.50;;;;;;5049494;28;20516;-73
2021/01/27 03:43:21;;;;;;;2.65;2.45;;;4.10;42.10;;;;;;5050902;28;20531;-75
2021/01/27 03:46:04;;;;;;;4.00;2.30;;;4.10;42.60;;;;;;5048055;28;20917;-74
2021/01/27 03:48:38;;;;;;;2.65;2.40;;;4.00;42.80;;;;;;5032132;28;20429;-73
2021/01/27 03:51:04;;;;;;;3.38;3.08;;;4.20;43.70;;;;;;5031964;28;20391;-73
2021/01/27 03:53:33;;;;;;;5.50;2.55;;;4.20;42.70;;;;;;5032013;28;20398;-72
2021/01/27 03:56:20;;;;;;;8.10;2.80;;;4.30;42.20;;;;;;5031270;28;20392;-73
2021/01/27 03:58:47;;;;;;;3.95;3.08;;;4.10;43.50;;;;;;5030900;28;20878;-72
2021/01/27 04:01:14;;;;;;;4.07;3.08;;;4.00;44.90;;;;;;5031125;28;20397;-73
2021/01/27 04:03:40;;;;;;;4.45;3.13;;;4.10;45.10;;;;;;5029966;28;20387;-72
2021/01/27 04:06:06;;;;;;;5.90;3.40;;;4.00;46.50;;;;;;5030658;28;20387;-72
2021/01/27 04:08:33;;;;;;;5.43;3.60;;;4.00;47.10;;;;;;5031270;28;20462;-73
2021/01/27 04:10:59;;;;;;;6.22;3.00;;;4.00;47.70;;;;;;5030459;28;20768;-74
2021/01/27 04:13:25;;;;;;;3.40;2.88;;;4.00;46.60;;;;;;5030725;28;20931;-72
2021/01/27 04:15:51;;;;;;;4.80;3.50;;;4.00;46.20;;;;;;5030278;28;20394;-75
2021/01/27 04:18:16;;;;;;;7.37;2.60;;;3.90;47.30;;;;;;5030623;28;20432;-75
2021/01/27 04:20:42;;;;;;;3.60;2.87;;;3.90;48.60;;;;;;5030060;28;20927;-75
2021/01/27 04:23:08;;;;;;;5.90;3.20;;;3.80;49.10;;;;;;5030558;28;20887;-74
2021/01/27 04:25:34;;;;;;;4.97;3.80;;;3.80;49.70;;;;;;5029505;28;20406;-73
2021/01/27 04:27:59;;;;;;;7.10;3.47;;;3.80;49.70;;;;;;5035887;28;20395;-75
2021/01/27 04:30:31;;;;;;;5.47;3.47;;;3.80;49.40;;;;;;5069050;28;20486;-73
2021/01/27 04:32:58;;;;;;;7.57;3.72;;;3.70;49.50;;;;;;5071957;28;20390;-73
2021/01/27 04:35:24;;;;;;;4.80;3.47;;;3.80;49.00;;;;;;5067723;28;20505;-73
2021/01/27 04:37:50;;;;;;;4.43;3.10;;;3.90;49.00;;;;;;5031439;28;20395;-71
2021/01/27 04:40:29;;;;;;;5.22;4.10;;;3.90;48.80;;;;;;5046314;28;20415;-72
2021/01/27 04:42:55;;;;;;;6.65;3.90;;;3.80;48.80;;;;;;5050128;28;20883;-72
2021/01/27 04:45:21;;;;;;;6.22;4.40;;;3.90;50.40;;;;;;5049405;28;20386;-73
2021/01/27 04:48:07;;;;;;;8.18;4.88;;;3.80;50.70;;;;;;5031809;28;20470;-73
2021/01/27 04:50:38;;;;;;;9.23;5.45;;;3.90;50.50;;;;;;5029702;28;20401;-73
2021/01/27 04:53:50;;;;;;;7.07;5.30;;;3.90;51.10;;;;;;5030277;28;20499;-74
2021/01/27 04:56:29;;;;;;;6.60;5.45;;;3.80;51.70;;;;;;5029854;28;20474;-77
2021/01/27 04:59:28;;;;;;;8.87;5.20;;;3.80;51.90;;;;;;5029765;28;20399;-74
2021/01/27 05:02:24;;;;;;;9.48;6.03;;;3.90;51.20;;;;;;5029844;28;20901;-72
2021/01/27 05:05:00;;;;;;;6.25;4.70;;;3.80;51.10;;;;;;5029941;28;20395;-72
2021/01/27 05:07:51;;;;;;;7.00;5.40;;;3.80;51.80;;;;;;5031999;28;20568;-72
2021/01/27 05:10:38;;;;;;;8.35;5.47;;;3.70;52.70;;;;;;5027522;28;20690;-72
2021/01/27 05:13:17;;;;;;;6.53;5.50;;;3.60;53.10;;;;;;5029962;28;20745;-73
2021/01/27 05:15:43;;;;;;;9.27;5.80;;;3.60;53.50;;;;;;5029610;28;20403;-72
2021/01/27 05:18:13;;;;;;;5.95;5.30;;;3.70;52.90;;;;;;5031351;28;20407;-74
2021/01/27 05:20:38;;;;;;;5.82;5.32;;;3.70;52.80;;;;;;5034260;28;20919;-73
2021/01/27 05:23:04;;;;;;;10.20;6.00;;;3.70;52.40;;;;;;5033799;28;20449;-71
2021/01/27 05:25:44;;;;;;;6.97;5.20;;;3.70;53.30;;;;;;5033613;28;20379;-71
2021/01/27 05:28:15;;;;;;;8.30;5.32;;;3.70;52.70;;;;;;5041541;28;20514;-71
2021/01/27 05:30:50;;;;;;;6.88;5.00;;;3.70;52.10;;;;;;5073112;28;20395;-71
2021/01/27 05:33:16;;;;;;;9.70;5.10;;;3.80;51.30;;;;;;5073328;28;20382;-70
2021/01/27 05:35:42;;;;;;;7.97;4.55;;;3.70;52.40;;;;;;5067726;28;20497;-70
2021/01/27 05:38:27;;;;;;;7.88;4.43;;;3.80;52.90;;;;;;5033812;28;20533;-71
2021/01/27 05:41:10;;;;;;;5.45;4.95;;;3.90;51.80;;;;;;5032811;28;20784;-69
2021/01/27 05:43:37;;;;;;;7.25;4.55;;;3.80;53.10;;;;;;5033339;28;20745;-69
2021/01/27 05:46:26;;;;;;;4.60;4.20;;;3.90;52.20;;;;;;5035017;28;20894;-70
2021/01/27 05:48:52;;;;;;;7.80;4.60;;;4.00;51.70;;;;;;5032478;28;20482;-71
2021/01/27 05:51:32;;;;;;;5.70;4.15;;;4.00;51.00;;;;;;5033070;28;21011;-70
2021/01/27 05:53:59;;;;;;;4.75;4.05;;;3.90;53.00;;;;;;5032912;28;20410;-71
2021/01/27 05:56:26;;;;;;;4.50;3.53;;;3.90;53.20;;;;;;5032897;28;20406;-71
2021/01/27 05:59:07;;;;;;;5.68;3.55;;;4.00;52.70;;;;;;5032686;28;20383;-69
2021/01/27 06:01:37;;;;;;;6.00;4.07;;;3.90;53.60;;;;;;5033214;28;20722;-69
2021/01/27 06:04:12;;;;;;;5.30;4.20;;;3.90;54.50;;;;;;5032651;28;20474;-70
2021/01/27 06:06:50;;;;;;;7.17;4.27;;;3.80;56.10;;;;;;5052377;28;20422;-70
2021/01/27 06:09:30;;;;;;;5.43;4.00;;;3.80;57.10;;;;;;5052684;28;20435;-70
2021/01/27 06:12:24;;;;;;;6.95;3.70;;;3.80;57.60;;;;;;5052202;28;20396;-71
2021/01/27 06:15:28;;;;;;;7.85;4.70;;;3.70;58.40;;;;;;5044456;28;20422;-69
2021/01/27 06:17:54;;;;;;;5.00;3.97;;;3.60;61.50;;;;;;5031059;28;20484;-71
2021/01/27 06:20:31;;;;;;;7.70;4.60;;;3.70;61.60;;;;;;5032053;28;20767;-71
2021/01/27 06:23:20;;;;;;;5.68;3.97;;;3.60;64.20;;;;;;5032050;28;20387;-71
2021/01/27 06:26:12;;;;;;;5.43;4.88;;;3.60;64.00;;;;;;5034335;28;20403;-70
2021/01/27 06:29:08;;;;;;;7.65;5.40;;;3.50;65.50;;;;;;5047056;28;20383;-69
2021/01/27 06:31:54;;;;;;;8.98;5.57;;;3.50;66.50;;;;;;5072031;28;20379;-71
2021/01/27 06:34:51;;;;;;;7.95;5.40;;;3.60;65.90;;;;;;5064756;28;20402;-70
2021/01/27 06:37:22;;;;;;;6.22;5.47;;;3.50;68.10;;;;;;5051571;28;20836;-71
2021/01/27 06:40:30;;;;;;;5.70;5.20;;;3.60;68.10;;;;;;5051293;28;20415;-70
2021/01/27 06:43:05;;;;;;;7.37;4.90;;;3.60;67.70;;;;;;5051667;28;20378;-70
2021/01/27 06:45:56;;;;;;;7.65;5.00;;;3.50;68.70;;;;;;5038940;28;20395;-70
2021/01/27 06:48:43;;;;;;;8.53;6.33;;;3.50;68.60;;;;;;5031509;28;20375;-71
2021/01/27 06:51:12;;;;;;;6.18;5.55;;;3.40;71.60;;;;;;5031685;28;20757;-71
2021/01/27 06:53:56;;;;;;;8.43;6.33;;;3.40;73.20;;;;;;5031573;28;20422;-70
2021/01/27 06:56:34;;;;;;;7.82;6.00;;;3.30;73.80;;;;;;5031313;28;20807;-71
2021/01/27 06:59:30;;;;;;;8.20;6.53;;;3.30;76.10;;;;;;5031043;28;20492;-70
2021/01/27 07:02:28;;;;;;;8.63;6.82;;;3.30;77.60;;;;;;5031407;28;20474;-69
2021/01/27 07:05:05;;;;;;;8.75;7.38;;;3.20;79.00;;;;;;5025449;28;20506;-70
2021/01/27 07:07:56;;;;;;;8.48;7.18;;;3.30;78.50;;;;;;5030996;28;20391;-70
2021/01/27 07:10:46;;;;;;;9.03;7.17;;;3.30;78.40;;;;;;5031139;28;20410;-71
2021/01/27 07:13:49;;;;;;;10.75;7.60;;;3.20;78.70;;;;;;5031373;28;20788;-72
2021/01/27 07:16:33;;;;;;;7.00;6.20;;;3.30;76.30;;;;;;5029908;28;20935;-71
2021/01/27 07:19:28;;;;;;;7.90;6.80;;;3.40;75.60;;;;;;5029032;28;20400;-70
2021/01/27 07:22:03;;;;;;;10.82;7.47;;;3.30;76.90;;;;;;5012381;28;20465;-70
2021/01/27 07:24:35;;;;;;;8.77;7.10;;;3.20;77.80;;;;;;5033359;28;20423;-71
2021/01/27 07:27:07;;;;;;;12.00;7.20;;;3.20;79.10;;;;;;5036007;28;20397;-70
2021/01/27 07:29:44;;;;;;;10.65;8.43;;;3.20;80.40;;;;;;5050287;28;20389;-71
2021/01/27 07:32:20;;;;;;;10.20;7.50;;;3.20;79.60;;;;;;5051085;28;20392;-73
2021/01/27 07:35:04;;;;;;;9.63;7.50;;;3.20;78.30;;;;;;5045517;28;20756;-75
2021/01/27 07:37:41;;;;;;;9.18;7.30;;;3.30;78.50;;;;;;5050807;28;20384;-74
2021/01/27 07:40:15;;;;;;;9.18;7.15;;;3.30;78.80;;;;;;5050076;28;20451;-75
2021/01/27 07:43:01;;;;;;;11.00;8.75;;;3.20;79.50;;;;;;5049306;28;20405;-73
2021/01/27 07:45:38;;;;;;;10.90;8.70;;;3.20;79.80;;;;;;5039349;28;20768;-72
2021/01/27 07:48:21;;;;;;;11.27;8.43;;;3.20;80.30;;;;;;5031121;28;20774;-72
2021/01/27 07:50:51;;;;;;;10.70;8.30;;;3.10;83.00;;;;;;5030349;28;20849;-73
2021/01/27 07:53:25;;;;;;;10.57;8.60;;;3.10;82.80;;;;;;5030223;28;20435;-74
2021/01/27 07:56:22;;;;;;;11.27;8.93;;;3.10;82.40;;;;;;5030144;28;20446;-74
2021/01/27 07:58:54;;;;;;;10.98;8.80;;;3.00;83.30;;;;;;5030086;28;20386;-72
2021/01/27 08:01:25;;;;;;;13.73;10.20;;;3.10;84.60;;;;;;5038800;28;20413;-71
2021/01/27 08:04:07;;;;;;;12.23;10.38;;;3.10;84.40;;;;;;5041139;28;20429;-71
2021/01/27 08:06:45;;;;;;;13.03;10.53;;;3.10;85.40;;;;;;5032367;28;20383;-71
2021/01/27 08:09:13;;;;;;;13.82;10.88;;;3.10;84.90;;;;;;5031391;28;20372;-71
2021/01/27 08:11:44;;;;;;;16.13;11.27;;;3.10;84.50;;;;;;5032805;28;20386;-70
2021/01/27 08:14:14;;;;;;;14.55;11.30;;;3.10;84.40;;;;;;5034739;28;20573;-74
2021/01/27 08:16:47;;;;;;;14.05;11.50;;;3.00;83.90;;;;;;5032094;28;20375;-70
2021/01/27 08:19:12;;;;;;;15.57;11.40;;;3.00;83.30;;;;;;5030957;28;20771;-74
2021/01/27 08:21:53;;;;;;;16.90;10.83;;;3.10;84.60;;;;;;5046653;28;20395;-73
2021/01/27 08:24:33;;;;;;;15.00;11.13;;;3.10;83.20;;;;;;5031726;28;20406;-72
2021/01/27 08:27:22;;;;;;;15.13;12.10;;;3.20;82.50;;;;;;5030947;28;20382;-72
2021/01/27 08:29:54;;;;;;;16.90;11.90;;;3.20;82.00;;;;;;5030655;28;20782;-73
2021/01/27 08:32:33;;;;;;;17.42;11.93;;;3.20;83.60;;;;;;5030901;28;20426;-74
2021/01/27 08:35:05;;;;;;;16.95;11.20;;;3.20;83.40;;;;;;5044663;28;20739;-74
2021/01/27 08:37:34;;;;;;;15.50;11.00;;;3.30;81.90;;;;;;5047733;28;20978;-71
2021/01/27 08:40:31;;;;;;;11.73;10.05;;;3.30;80.70;;;;;;5049827;28;20770;-72
2021/01/27 08:42:59;;;;;;;13.95;10.77;;;3.30;80.30;;;;;;5050162;28;20481;-73
2021/01/27 08:45:32;;;;;;;16.10;11.25;;;3.30;81.20;;;;;;5030019;28;20434;-74
2021/01/27 08:48:02;;;;;;;15.63;11.40;;;3.40;81.40;;;;;;5029234;28;20435;-72
2021/01/27 08:50:48;;;;;;;14.40;11.40;;;3.30;82.30;;;;;;5029974;28;20486;-72
2021/01/27 08:53:19;;;;;;;15.93;11.88;;;3.40;81.40;;;;;;5035306;28;20426;-72
2021/01/27 08:55:45;;;;;;;14.20;11.43;;;3.40;80.40;;;;;;5034011;28;20482;-74
2021/01/27 08:58:31;;;;;;;16.88;11.82;;;3.40;82.90;;;;;;5034872;28;20510;-73
2021/01/27 09:01:04;;;;;;;18.02;12.50;;;3.40;83.90;;;;;;5052566;28;20418;-72
2021/01/27 09:03:42;;;;;;;15.43;12.32;;;3.40;83.50;;;;;;5048518;28;20405;-74
2021/01/27 09:06:23;;;;;;;16.17;12.20;;;3.50;81.80;;;;;;5041697;28;20416;-73
2021/01/27 09:08:49;;;;;;;16.75;12.20;;;3.50;81.90;;;;;;5035094;28;20457;-72
2021/01/27 09:11:19;;;;;;;18.50;12.80;;;3.60;83.30;;;;;;5049236;28;20440;-74
2021/01/27 09:13:46;;;;;;;12.00;10.70;;;3.70;83.10;;;;;;5056815;28;20385;-74
2021/01/27 09:16:23;;;;;;;12.68;10.52;;;3.90;80.20;;;;;;5050745;28;20401;-71
2021/01/27 09:18:57;;;;;;;15.35;11.30;;;3.90;78.80;;;;;;5057509;28;20397;-73
2021/01/27 09:21:24;;;;;;;12.23;10.27;;;4.00;78.00;;;;;;5056533;28;20417;-73
2021/01/27 09:24:02;;;;;;;15.15;11.52;;;4.00;77.70;;;;;;5057586;28;20385;-74
2021/01/27 09:26:42;;;;;;;13.57;10.68;;;3.90;77.90;;;;;;5035750;28;20421;-73
2021/01/27 09:29:20;;;;;;;13.95;11.05;;;3.90;79.30;;;;;;5043805;28;20775;-73
2021/01/27 09:31:45;;;;;;;14.20;10.50;;;3.90;80.30;;;;;;5054328;28;20809;-75
2021/01/27 09:34:29;;;;;;;10.93;9.35;;;3.90;79.50;;;;;;5041420;28;20409;-74
2021/01/27 09:37:00;;;;;;;11.90;9.85;;;4.00;76.50;;;;;;5055060;28;20743;-75
2021/01/27 09:39:35;;;;;;;14.93;9.80;;;4.10;76.60;;;;;;5052745;28;20413;-73
2021/01/27 09:42:28;;;;;;;9.68;8.23;;;4.00;76.70;;;;;;5054956;28;20392;-72
2021/01/27 09:45:00;;;;;;;11.25;9.43;;;4.00;76.50;;;;;;5049507;28;20402;-72
2021/01/27 09:47:26;;;;;;;11.27;9.27;;;3.90;78.40;;;;;;5054481;28;20866;-74
2021/01/27 09:49:55;;;;;;;14.15;10.40;;;3.80;79.70;;;;;;5037532;28;20506;-73
2021/01/27 09:52:22;;;;;;;12.73;8.77;;;3.80;81.30;;;;;;5033424;28;20596;-73
2021/01/27 09:55:11;;;;;;;10.65;9.55;;;3.90;80.60;;;;;;5047730;28;20911;-72
2021/01/27 09:57:39;;;;;;;11.15;9.80;;;3.90;80.90;;;;;;5052393;28;20413;-74
2021/01/27 10:00:08;;;;;;;11.43;9.32;;;3.90;81.60;;;;;;5049559;28;20562;-73
2021/01/27 10:02:35;;;;;;;11.07;9.40;;;4.00;82.60;;;;;;5045061;28;20455;-73
2021/01/27 10:05:03;;;;;;;13.15;8.73;;;4.10;82.20;;;;;;5047697;28;20914;-73
2021/01/27 10:07:36;;;;;;;10.38;8.95;;;4.10;82.00;;;;;;5034373;28;20395;-72
2021/01/27 10:10:12;;;;;;;12.65;7.97;;;4.20;80.70;;;;;;5038050;28;20397;-72
2021/01/27 10:12:38;;;;;;;12.25;8.57;;;4.20;81.20;;;;;;5052631;28;20554;-73
2021/01/27 10:15:30;;;;;;;14.88;7.78;;;4.30;79.80;;;;;;5051266;28;21123;-72
2021/01/27 10:18:19;;;;;;;11.70;8.27;;;4.40;78.90;;;;;;5043463;28;20409;-73
2021/01/27 10:20:46;;;;;;;10.20;8.93;;;4.40;79.30;;;;;;5032488;28;20472;-74
2021/01/27 10:23:31;;;;;;;10.85;8.43;;;4.30;81.70;;;;;;5038058;28;20401;-72
2021/01/27 10:26:21;;;;;;;10.10;8.55;;;4.60;80.70;;;;;;5052709;28;20425;-76
2021/01/27 10:28:47;;;;;;;9.45;7.88;;;4.60;80.00;;;;;;5040639;28;20769;-72
2021/01/27 10:31:33;;;;;;;11.60;8.70;;;4.60;79.40;;;;;;5032318;28;20398;-74
2021/01/27 10:33:59;;;;;;;13.75;8.60;;;4.60;80.60;;;;;;5050333;28;20475;-72
2021/01/27 10:36:46;;;;;;;10.10;7.83;;;4.60;82.00;;;;;;5052001;28;20390;-73
2021/01/27 10:39:25;;;;;;;11.38;8.30;;;4.60;81.80;;;;;;5031760;28;20391;-74
2021/01/27 10:42:08;;;;;;;10.40;8.35;;;4.60;80.10;;;;;;5032424;28;20422;-74
2021/01/27 10:44:36;;;;;;;13.75;7.97;;;4.60;80.70;;;;;;5031794;28;20507;-74
2021/01/27 10:47:07;;;;;;;9.00;8.10;;;4.60;80.80;;;;;;5033018;28;20399;-74
2021/01/27 10:49:43;;;;;;;10.68;8.95;;;4.60;81.60;;;;;;5052042;28;20428;-77
2021/01/27 10:52:20;;;;;;;12.85;8.18;;;4.60;82.60;;;;;;5050872;28;20396;-73
2021/01/27 10:54:46;;;;;;;12.88;9.02;;;4.60;84.00;;;;;;5038283;28;20402;-72
2021/01/27 10:57:18;;;;;;;8.38;7.45;;;4.60;85.00;;;;;;5032956;28;20456;-73
2021/01/27 10:59:43;;;;;;;9.30;7.40;;;4.80;83.80;;;;;;5037237;28;20411;-72
2021/01/27 11:02:09;;;;;;;8.10;7.30;;;4.80;83.20;;;;;;5035563;28;20471;-73
2021/01/27 11:04:34;;;;;;;9.48;8.18;;;4.80;82.20;;;;;;5040587;28;20395;-74
2021/01/27 11:07:00;;;;;;;14.45;8.20;;;4.70;82.10;;;;;;5032364;28;20383;-74
2021/01/27 11:09:26;;;;;;;8.10;7.30;;;4.80;83.20;;;;;;5050901;28;20485;-74
2021/01/27 11:11:52;;;;;;;9.00;7.60;;;4.80;83.20;;;;;;5052110;28;20472;-72
2021/01/27 11:14:19;;;;;;;9.13;7.88;;;4.80;83.90;;;;;;5039671;28;20486;-73
2021/01/27 11:16:45;;;;;;;11.35;7.53;;;4.80;83.90;;;;;;5031320;28;20391;-73
2021/01/27 11:19:11;;;;;;;10.05;7.50;;;4.90;84.00;;;;;;5046069;28;20823;-72
2021/01/27 11:21:37;;;;;;;8.52;7.18;;;4.80;83.90;;;;;;5050723;28;20397;-73
2021/01/27 11:24:04;;;;;;;7.60;6.80;;;4.90;84.20;;;;;;5046788;28;20945;-73
2021/01/27 11:26:29;;;;;;;8.77;6.32;;;4.90;82.90;;;;;;5041305;28;20447;-71
2021/01/27 11:28:55;;;;;;;10.18;6.53;;;5.00;82.00;;;;;;5047299;28;20441;-75
2021/01/27 11:31:21;;;;;;;7.40;6.70;;;5.00;82.50;;;;;;5050868;28;20389;-72
2021/01/27 11:33:46;;;;;;;7.00;6.30;;;4.90;82.30;;;;;;5034718;28;20415;-73
2021/01/27 11:36:14;;;;;;;6.87;6.17;;;4.90;82.40;;;;;;5043252;28;20451;-74
2021/01/27 11:38:40;;;;;;;7.90;6.60;;;5.00;81.60;;;;;;5032739;28;20411;-73
2021/01/27 11:41:05;;;;;;;6.60;6.00;;;5.00;81.60;;;;;;5057520;28;20678;-72
2021/01/27 11:43:31;;;;;;;10.00;7.20;;;5.10;82.00;;;;;;5045441;28;20407;-71
2021/01/27 11:45:57;;;;;;;10.07;7.30;;;5.10;80.90;;;;;;5029931;28;20928;-71
2021/01/27 11:48:23;;;;;;;9.00;6.40;;;5.10;80.70;;;;;;5034056;28;20399;-72
2021/01/27 11:50:48;;;;;;;11.75;6.40;;;5.20;79.90;;;;;;5030417;28;20802;-75
2021/01/27 11:53:14;;;;;;;9.40;6.70;;;5.20;80.40;;;;;;5029673;28;20410;-74
2021/01/27 11:55:39;;;;;;;7.60;6.63;;;5.10;81.50;;;;;;5030765;28;20757;-72
2021/01/27 11:58:05;;;;;;;7.13;6.43;;;5.20;81.80;;;;;;5047016;28;20404;-73
2021/01/27 12:00:31;;;;;;;7.07;6.37;;;5.10;82.00;;;;;;5050632;28;20906;-71
2021/01/27 12:02:57;;;;;;;7.60;6.10;;;5.20;81.20;;;;;;5049438;28;20393;-73
2021/01/27 12:05:23;;;;;;;8.80;6.50;;;5.10;80.70;;;;;;5033212;28;20402;-73
2021/01/27 12:07:49;;;;;;;8.95;6.80;;;5.10;81.10;;;;;;5030283;28;20499;-73
2021/01/27 12:10:15;;;;;;;8.77;7.00;;;5.20;81.30;;;;;;5038436;28;20581;-72
2021/01/27 12:12:40;;;;;;;9.27;6.80;;;5.10;81.70;;;;;;5037839;28;20442;-71
2021/01/27 12:15:07;;;;;;;8.40;6.65;;;5.30;81.70;;;;;;5029598;28;20442;-74
2021/01/27 12:17:32;;;;;;;6.78;6.07;;;5.30;80.40;;;;;;5033818;28;20763;-75
2021/01/27 12:19:58;;;;;;;7.07;5.70;;;5.30;81.00;;;;;;5038053;28;20465;-72
2021/01/27 12:22:23;;;;;;;7.17;6.43;;;5.30;81.70;;;;;;5064644;28;20529;-72
2021/01/27 12:24:49;;;;;;;6.10;5.50;;;5.30;82.00;;;;;;5067732;28;20448;-74
2021/01/27 12:27:14;;;;;;;8.60;5.70;;;5.40;81.30;;;;;;5068755;28;20395;-74
2021/01/27 12:29:40;;;;;;;7.32;5.65;;;5.70;78.60;;;;;;5053967;28;20399;-74
2021/01/27 12:32:06;;;;;;;7.25;6.55;;;5.60;77.70;;;;;;5068340;28;20384;-74
2021/01/27 12:34:32;;;;;;;5.50;5.00;;;5.60;78.70;;;;;;5067213;28;20384;-74
2021/01/27 12:36:59;;;;;;;5.57;4.97;;;5.60;77.90;;;;;;5062189;28;20409;-73
2021/01/27 12:39:24;;;;;;;7.90;4.97;;;5.60;77.00;;;;;;5064724;28;20969;-74
2021/01/27 12:41:50;;;;;;;6.27;5.00;;;5.70;76.30;;;;;;5054689;28;20468;-75
2021/01/27 12:44:16;;;;;;;4.77;4.37;;;5.70;76.60;;;;;;5050420;28;20420;-74
2021/01/27 12:46:41;;;;;;;6.50;5.00;;;5.60;77.00;;;;;;5066912;28;20427;-75
2021/01/27 12:49:07;;;;;;;9.65;5.70;;;5.60;77.90;;;;;;5059186;28;20480;-73
2021/01/27 12:51:33;;;;;;;6.00;5.50;;;5.60;79.00;;;;;;5050185;28;20393;-73
2021/01/27 12:53:58;;;;;;;6.75;5.90;;;5.70;78.00;;;;;;5050166;28;20400;-73
2021/01/27 12:56:24;;;;;;;6.03;5.00;;;5.70;77.40;;;;;;5049966;28;20428;-74
2021/01/27 12:58:49;;;;;;;7.40;5.47;;;5.80;77.80;;;;;;5052239;28;20392;-75
2021/01/27 13:01:15;;;;;;;7.37;5.40;;;5.90;75.40;;;;;;5050414;28;20780;-74
2021/01/27 13:03:40;;;;;;;6.50;5.90;;;5.90;76.00;;;;;;5055008;28;20448;-74
2021/01/27 13:06:06;;;;;;;9.60;6.83;;;5.90;76.40;;;;;;5070597;28;20406;-75
2021/01/27 13:08:31;;;;;;;6.30;5.70;;;5.80;78.00;;;;;;5052798;28;20481;-72
2021/01/27 13:10:57;;;;;;;6.20;5.60;;;5.80;79.30;;;;;;5055500;28;20424;-72
2021/01/27 13:13:23;;;;;;;9.57;6.68;;;5.90;78.30;;;;;;5053493;28;20400;-75
2021/01/27 13:15:48;;;;;;;11.68;7.43;;;5.80;79.20;;;;;;5071568;28;20453;-73
2021/01/27 13:18:14;;;;;;;7.32;6.63;;;5.80;80.70;;;;;;5072500;28;20431;-73
2021/01/27 13:20:40;;;;;;;11.77;7.05;;;5.80;81.70;;;;;;5074338;28;20407;-74
2021/01/27 13:23:05;;;;;;;8.77;6.63;;;5.90;80.50;;;;;;5074157;28;20386;-75